ADDS METAR Data INFO
IDs: Format: Raw Decoded Include TAF

Data at: 0651 UTC 18 Feb 2018

METAR for:LFQA (Reims/Prunay Aprt, --, FR)
Text:LFQA 180630Z AUTO 11003KT 0350 FZFG VV/// M02/M02 Q1026
Temperature: -2.0°C ( 28°F)
Dewpoint: -2.0°C ( 28°F) [RH = 100%]
Pressure (altimeter):30.30 inches Hg (1026.0 mb)
Winds:from the ESE (110 degrees) at 3 MPH (3 knots; 1.5 m/s)
Visibility: 0.22 sm ( 0.35 km)
Ceiling:indefinite ceiling with vertical visibility of 0 feet AGL
Clouds:obscured sky
Weather:FZFG (freezing fog)

TAF for:LFQA (Reims/Prunay Aprt, --, FR)
Text:No data found